createdAt,value
2022-08-20T00:01:22.094Z,23.52
2022-08-20T00:02:56.977Z,23.50
2022-08-20T00:04:28.927Z,23.54
2022-08-20T00:06:06.609Z,23.54
2022-08-20T00:07:38.622Z,23.56
2022-08-20T00:09:11.602Z,23.51
2022-08-20T00:10:45.236Z,23.49
2022-08-20T00:12:20.720Z,23.47
2022-08-20T00:13:55.562Z,23.40
2022-08-20T00:15:29.750Z,23.40
2022-08-20T00:17:02.995Z,23.36
2022-08-20T00:18:37.416Z,23.34
2022-08-20T00:20:11.386Z,23.33
2022-08-20T00:21:43.342Z,23.29
2022-08-20T00:23:17.042Z,23.25
2022-08-20T00:24:49.965Z,23.07
2022-08-20T00:26:23.847Z,22.90
2022-08-20T00:27:58.319Z,22.91
2022-08-20T00:29:30.380Z,22.97
2022-08-20T00:31:05.062Z,23.02
2022-08-20T00:32:54.154Z,23.10
2022-08-20T00:34:26.113Z,23.18
2022-08-20T00:35:58.356Z,23.22
2022-08-20T00:37:30.338Z,23.25
2022-08-20T00:39:03.291Z,23.20
2022-08-20T00:40:38.174Z,23.26
2022-08-20T00:42:10.246Z,23.40
2022-08-20T00:43:45.154Z,23.31
2022-08-20T00:45:17.666Z,23.26
2022-08-20T00:46:50.075Z,23.15
2022-08-20T00:48:24.172Z,23.18
2022-08-20T00:49:56.281Z,23.13
2022-08-20T00:51:34.095Z,23.03
2022-08-20T00:53:08.774Z,22.92
2022-08-20T00:54:52.262Z,22.80
2022-08-20T00:56:25.361Z,22.84
2022-08-20T00:58:00.802Z,22.78
2022-08-20T00:59:35.409Z,22.74
2022-08-20T01:01:07.970Z,22.75
2022-08-20T01:02:42.344Z,22.68
2022-08-20T01:04:14.348Z,22.62
2022-08-20T01:05:48.802Z,22.64
2022-08-20T01:07:26.522Z,22.76
2022-08-20T01:09:02.487Z,22.73
2022-08-20T01:10:37.240Z,22.68
2022-08-20T01:12:10.904Z,22.60
2022-08-20T01:13:43.851Z,22.48
2022-08-20T01:15:18.297Z,22.47
2022-08-20T01:16:52.379Z,22.53
2022-08-20T01:18:26.658Z,22.62
2022-08-20T01:19:58.575Z,22.64
2022-08-20T01:21:34.698Z,22.68
2022-08-20T01:23:33.191Z,22.66
2022-08-20T01:25:10.449Z,22.64
2022-08-20T01:26:44.925Z,22.63
2022-08-20T01:28:20.563Z,22.60
2022-08-20T01:29:52.591Z,22.60
2022-08-20T01:31:27.654Z,22.68
2022-08-20T01:33:00.837Z,22.71
2022-08-20T01:34:33.858Z,22.70
2022-08-20T01:36:06.647Z,22.69
2022-08-20T01:37:38.680Z,22.66
2022-08-20T01:39:11.910Z,22.63
2022-08-20T01:41:13.352Z,22.54
2022-08-20T01:42:53.960Z,22.45
2022-08-20T01:44:33.288Z,22.37
2022-08-20T01:46:05.374Z,22.47
2022-08-20T01:47:38.690Z,22.47
2022-08-20T01:49:23.059Z,22.47
2022-08-20T01:51:14.152Z,22.59
2022-08-20T01:52:52.319Z,22.59
2022-08-20T01:54:24.835Z,22.59
2022-08-20T01:55:57.798Z,22.54
2022-08-20T01:57:29.882Z,22.46
2022-08-20T01:59:03.777Z,22.47
2022-08-20T02:00:36.841Z,22.52
2022-08-20T02:02:09.965Z,22.48
2022-08-20T02:03:44.797Z,22.59
2022-08-20T02:05:18.468Z,22.58
2022-08-20T02:06:57.355Z,22.62
2022-08-20T02:08:33.342Z,22.51
2022-08-20T02:10:07.085Z,22.48
2022-08-20T02:11:39.668Z,22.40
2022-08-20T02:13:11.615Z,22.32
2022-08-20T02:14:45.393Z,22.32
2022-08-20T02:16:17.377Z,22.34
2022-08-20T02:17:50.344Z,22.38
2022-08-20T02:19:28.180Z,22.35
2022-08-20T02:21:01.399Z,22.29
2022-08-20T02:22:53.393Z,22.36
2022-08-20T02:24:27.173Z,22.42
2022-08-20T02:25:59.565Z,22.36
2022-08-20T02:27:31.819Z,22.33
2022-08-20T02:29:05.489Z,22.18
2022-08-20T02:30:39.564Z,22.14
2022-08-20T02:32:25.154Z,22.11
2022-08-20T02:34:21.652Z,22.00
2022-08-20T02:35:56.786Z,22.02
2022-08-20T02:37:29.791Z,22.02
2022-08-20T02:39:01.883Z,22.02
2022-08-20T02:40:33.976Z,22.10
2022-08-20T02:42:06.015Z,22.13
2022-08-20T02:43:39.553Z,22.10
2022-08-20T02:45:13.139Z,22.04
2022-08-20T02:46:50.970Z,22.01
2022-08-20T02:48:24.019Z,22.07
2022-08-20T02:49:56.059Z,22.06
2022-08-20T02:51:28.014Z,22.04
2022-08-20T02:53:04.006Z,21.91
2022-08-20T02:54:36.329Z,21.85
2022-08-20T02:56:09.171Z,21.83
2022-08-20T02:57:41.365Z,21.66
2022-08-20T02:59:13.721Z,21.36
2022-08-20T03:00:52.332Z,21.37
2022-08-20T03:02:25.406Z,21.25
2022-08-20T03:03:59.495Z,21.35
2022-08-20T03:05:31.489Z,21.44
2022-08-20T03:07:04.742Z,21.51
2022-08-20T03:08:36.770Z,21.57
2022-08-20T03:10:09.471Z,21.65
2022-08-20T03:11:42.018Z,21.79
2022-08-20T03:13:16.298Z,21.81
2022-08-20T03:14:48.278Z,21.81
2022-08-20T03:16:21.280Z,21.87
2022-08-20T03:17:53.269Z,21.85
2022-08-20T03:19:25.668Z,21.82
2022-08-20T03:20:58.709Z,21.85
2022-08-20T03:22:30.704Z,21.91
2022-08-20T03:24:02.706Z,21.96
2022-08-20T03:25:36.255Z,22.00
2022-08-20T03:27:09.574Z,21.99
2022-08-20T03:28:44.114Z,21.96
2022-08-20T03:30:19.075Z,22.05
2022-08-20T03:31:51.096Z,22.01
2022-08-20T03:33:24.512Z,21.89
2022-08-20T03:34:56.579Z,21.83
2022-08-20T03:36:30.115Z,21.90
2022-08-20T03:38:02.214Z,21.91
2022-08-20T03:39:35.329Z,21.95
2022-08-20T03:41:07.315Z,22.05
2022-08-20T03:42:40.290Z,21.99
2022-08-20T03:44:12.238Z,21.84
2022-08-20T03:45:46.508Z,21.69
2022-08-20T03:47:18.485Z,21.62
2022-08-20T03:48:56.699Z,21.63
2022-08-20T03:50:34.129Z,21.65
2022-08-20T03:52:06.312Z,21.60
2022-08-20T03:53:38.434Z,21.55
2022-08-20T03:55:11.494Z,21.59
2022-08-20T03:56:43.494Z,21.62
2022-08-20T03:58:17.775Z,21.66
2022-08-20T03:59:55.120Z,21.63
2022-08-20T04:01:44.328Z,21.54
2022-08-20T04:03:19.811Z,21.56
2022-08-20T04:04:52.108Z,21.58
2022-08-20T04:06:24.049Z,21.63
2022-08-20T04:08:03.201Z,21.68
2022-08-20T04:11:56.885Z,21.59
2022-08-20T04:13:30.645Z,21.59
2022-08-20T04:15:03.878Z,21.58
2022-08-20T04:16:36.278Z,21.62
2022-08-20T04:18:10.682Z,21.64
2022-08-20T04:19:43.142Z,21.74
2022-08-20T04:21:16.807Z,21.77
2022-08-20T04:22:58.306Z,21.85
2022-08-20T04:24:32.615Z,21.95
2022-08-20T04:26:05.691Z,21.88
2022-08-20T04:27:38.103Z,21.83
2022-08-20T04:29:10.043Z,21.96
2022-08-20T04:30:43.348Z,22.02
2022-08-20T04:32:21.680Z,21.91
2022-08-20T04:33:54.631Z,21.89
2022-08-20T04:35:27.642Z,21.94
2022-08-20T04:36:59.896Z,21.99
2022-08-20T04:38:50.045Z,21.94
2022-08-20T04:40:42.633Z,21.84
2022-08-20T04:42:14.612Z,21.75
2022-08-20T04:43:47.559Z,21.80
2022-08-20T04:45:19.708Z,21.83
2022-08-20T04:46:51.627Z,21.91
2022-08-20T04:48:25.399Z,21.97
2022-08-20T04:50:00.674Z,21.87
2022-08-20T04:51:34.388Z,21.76
2022-08-20T04:53:11.315Z,21.78
2022-08-20T04:54:44.239Z,21.81
2022-08-20T04:56:16.227Z,21.81
2022-08-20T04:57:49.217Z,21.71
2022-08-20T04:59:22.290Z,21.69
2022-08-20T05:00:56.826Z,21.83
2022-08-20T05:02:35.557Z,21.87
2022-08-20T05:04:07.613Z,21.87
2022-08-20T05:05:39.816Z,21.84
2022-08-20T05:07:13.877Z,21.86
2022-08-20T05:08:46.799Z,21.88
2022-08-20T05:10:20.355Z,21.92
2022-08-20T05:11:52.698Z,22.00
2022-08-20T05:13:27.412Z,22.03
2022-08-20T05:14:59.471Z,22.06
2022-08-20T05:16:38.187Z,22.11
2022-08-20T05:18:10.235Z,22.10
2022-08-20T05:19:43.223Z,22.05
2022-08-20T05:21:16.178Z,22.08
2022-08-20T05:22:48.214Z,22.10
2022-08-20T05:24:21.807Z,22.15
2022-08-20T05:25:53.738Z,22.18
2022-08-20T05:27:27.500Z,22.19
2022-08-20T05:28:59.653Z,22.22
2022-08-20T05:30:34.180Z,22.30
2022-08-20T05:32:06.473Z,22.32
2022-08-20T05:33:39.885Z,22.38
2022-08-20T05:35:12.833Z,22.38
2022-08-20T05:36:46.994Z,22.35
2022-08-20T05:38:24.547Z,22.36
2022-08-20T05:39:56.620Z,22.44
2022-08-20T05:41:31.630Z,22.50
2022-08-20T05:43:05.143Z,22.54
2022-08-20T05:44:37.998Z,22.60
2022-08-20T05:46:10.015Z,22.62
2022-08-20T05:47:43.437Z,22.70
2022-08-20T05:49:20.364Z,22.81
2022-08-20T05:50:54.867Z,22.83
2022-08-20T05:52:26.804Z,22.79
2022-08-20T05:53:59.402Z,22.83
2022-08-20T05:55:31.922Z,22.86
2022-08-20T05:57:04.499Z,22.95
2022-08-20T05:58:36.443Z,23.05
2022-08-20T06:00:13.646Z,23.08
2022-08-20T06:01:46.681Z,23.08
2022-08-20T06:03:37.657Z,23.19
2022-08-20T06:05:09.703Z,23.26
2022-08-20T06:06:45.700Z,23.32
2022-08-20T06:08:19.782Z,23.34
2022-08-20T06:09:52.763Z,23.42
2022-08-20T06:11:24.683Z,23.10
2022-08-20T06:12:57.668Z,23.11
2022-08-20T06:14:31.278Z,23.30
2022-08-20T06:16:06.949Z,23.38
2022-08-20T06:17:40.164Z,23.43
2022-08-20T06:19:14.258Z,23.65
2022-08-20T06:20:58.098Z,23.82
2022-08-20T06:22:30.103Z,23.65
2022-08-20T06:24:03.122Z,23.73
2022-08-20T06:25:37.968Z,23.90
2022-08-20T06:27:14.836Z,24.05
2022-08-20T06:28:46.792Z,23.88
2022-08-20T06:30:19.060Z,23.77
2022-08-20T06:31:51.078Z,23.86
2022-08-20T06:33:24.017Z,24.00
2022-08-20T06:34:56.035Z,24.08
2022-08-20T06:36:28.514Z,24.16
2022-08-20T06:38:00.868Z,24.34
2022-08-20T06:39:32.937Z,24.37
2022-08-20T06:41:06.342Z,24.50
2022-08-20T06:42:48.261Z,24.25
2022-08-20T06:44:20.978Z,24.42
2022-08-20T06:45:58.103Z,24.59
2022-08-20T06:47:31.705Z,24.76
2022-08-20T06:49:04.871Z,24.90
2022-08-20T06:50:45.845Z,24.62
2022-08-20T06:52:20.601Z,24.42
2022-08-20T06:54:10.731Z,24.55
2022-08-20T06:55:48.462Z,24.55
2022-08-20T06:57:20.717Z,24.67
2022-08-20T06:58:53.673Z,24.81
2022-08-20T07:00:27.490Z,25.03
2022-08-20T07:02:00.495Z,25.18
2022-08-20T07:03:33.441Z,25.30
2022-08-20T07:05:06.035Z,25.39
2022-08-20T07:06:38.007Z,25.45
2022-08-20T07:08:12.254Z,25.50
2022-08-20T07:09:45.368Z,25.52
2022-08-20T07:11:18.373Z,25.65
2022-08-20T07:12:51.433Z,25.68
2022-08-20T07:14:23.400Z,25.68
2022-08-20T07:15:56.407Z,25.78
2022-08-20T07:17:28.516Z,25.79
2022-08-20T07:19:01.747Z,25.84
2022-08-20T07:20:36.072Z,25.93
2022-08-20T07:22:08.782Z,25.86
2022-08-20T07:23:42.574Z,25.92
2022-08-20T07:25:16.500Z,26.07
2022-08-20T07:26:51.485Z,26.22
2022-08-20T07:28:24.978Z,26.14
2022-08-20T07:30:15.497Z,26.16
2022-08-20T07:32:05.674Z,26.26
2022-08-20T07:33:44.280Z,26.15
2022-08-20T07:35:17.802Z,26.09
2022-08-20T07:36:50.715Z,26.18
2022-08-20T07:38:27.309Z,26.08
2022-08-20T07:39:59.379Z,26.24
2022-08-20T07:41:31.477Z,26.33
2022-08-20T07:43:03.655Z,26.31
2022-08-20T07:44:35.697Z,26.14
2022-08-20T07:46:09.358Z,26.34
2022-08-20T07:47:43.280Z,26.43
2022-08-20T07:49:16.224Z,26.38
2022-08-20T07:50:50.429Z,26.60
2022-08-20T07:52:22.435Z,26.42
2022-08-20T07:53:55.482Z,26.53
2022-08-20T07:55:27.737Z,26.65
2022-08-20T07:57:05.809Z,26.67
2022-08-20T07:58:39.544Z,26.81
2022-08-20T08:00:12.601Z,26.73
2022-08-20T08:04:09.033Z,26.90
2022-08-20T08:05:42.406Z,26.96
2022-08-20T08:07:14.351Z,27.05
2022-08-20T08:08:48.328Z,27.19
2022-08-20T08:10:22.470Z,27.15
2022-08-20T08:11:57.877Z,27.14
2022-08-20T08:13:36.198Z,27.26
2022-08-20T08:15:11.718Z,27.28
2022-08-20T08:16:45.823Z,27.38
2022-08-20T08:18:27.723Z,27.42
2022-08-20T08:20:05.085Z,27.29
2022-08-20T08:21:37.078Z,27.33
2022-08-20T08:23:11.383Z,27.41
2022-08-20T08:25:02.454Z,27.44
2022-08-20T08:26:34.499Z,27.52
2022-08-20T08:28:07.432Z,27.56
2022-08-20T08:29:40.708Z,27.62
2022-08-20T08:31:13.138Z,27.76
2022-08-20T08:33:03.867Z,27.77
2022-08-20T08:34:37.112Z,27.75
2022-08-20T08:36:13.038Z,27.74
2022-08-20T08:37:45.194Z,27.81
2022-08-20T08:39:26.051Z,27.86
2022-08-20T08:41:12.903Z,27.71
2022-08-20T08:42:46.653Z,27.83
2022-08-20T08:44:27.524Z,27.66
2022-08-20T08:46:02.220Z,27.81
2022-08-20T08:47:36.725Z,27.85
2022-08-20T08:49:10.669Z,27.95
2022-08-20T08:50:53.623Z,28.14
2022-08-20T08:52:31.834Z,28.11
2022-08-20T08:54:07.005Z,28.23
2022-08-20T08:55:39.294Z,28.24
2022-08-20T08:57:12.650Z,28.19
2022-08-20T08:58:44.930Z,28.25
2022-08-20T09:00:18.691Z,28.32
2022-08-20T09:01:56.983Z,28.28
2022-08-20T09:03:33.807Z,28.18
2022-08-20T09:05:15.366Z,28.26
2022-08-20T09:06:52.159Z,28.35
2022-08-20T09:08:30.833Z,28.54
2022-08-20T09:10:03.113Z,28.65
2022-08-20T09:11:45.934Z,28.58
2022-08-20T09:13:17.896Z,28.51
2022-08-20T09:14:51.023Z,28.52
2022-08-20T09:16:25.184Z,28.63
2022-08-20T09:17:59.912Z,28.71
2022-08-20T09:19:33.059Z,28.62
2022-08-20T09:21:06.721Z,28.69
2022-08-20T09:22:41.146Z,28.69
2022-08-20T09:24:13.345Z,28.77
2022-08-20T09:25:45.316Z,28.75
2022-08-20T09:27:18.313Z,28.83
2022-08-20T09:28:52.017Z,28.98
2022-08-20T09:30:24.334Z,28.89
2022-08-20T09:32:19.365Z,29.01
2022-08-20T09:33:53.210Z,29.04
2022-08-20T09:35:26.417Z,29.01
2022-08-20T09:36:58.395Z,29.15
2022-08-20T09:38:31.358Z,29.24
2022-08-20T09:40:04.250Z,29.34
2022-08-20T09:41:37.219Z,29.26
2022-08-20T09:43:10.202Z,29.31
2022-08-20T09:44:42.421Z,29.45
2022-08-20T09:46:14.358Z,29.52
2022-08-20T09:47:55.239Z,29.49
2022-08-20T09:49:30.107Z,29.57
2022-08-20T09:51:03.120Z,29.65
2022-08-20T09:52:41.533Z,29.56
2022-08-20T09:54:14.488Z,29.56
2022-08-20T09:55:49.322Z,29.64
2022-08-20T09:57:23.007Z,29.70
2022-08-20T09:58:58.956Z,29.76
2022-08-20T10:00:34.445Z,29.85
2022-08-20T10:02:06.547Z,29.92
2022-08-20T10:03:42.010Z,29.90
2022-08-20T10:05:14.272Z,29.81
2022-08-20T10:06:47.391Z,29.75
2022-08-20T10:08:20.947Z,29.91
2022-08-20T10:09:53.895Z,29.96
2022-08-20T10:11:25.875Z,30.08
2022-08-20T10:13:01.112Z,30.17
2022-08-20T10:14:34.102Z,30.07
2022-08-20T10:16:06.269Z,30.13
2022-08-20T10:17:39.914Z,30.36
2022-08-20T10:19:11.911Z,30.27
2022-08-20T10:20:44.072Z,30.25
2022-08-20T10:22:16.059Z,30.09
2022-08-20T10:23:48.053Z,30.27
2022-08-20T10:25:21.070Z,30.39
2022-08-20T10:26:55.707Z,30.31
2022-08-20T10:28:29.839Z,30.28
2022-08-20T10:30:02.237Z,30.29
2022-08-20T10:31:34.236Z,30.35
2022-08-20T10:33:06.848Z,30.46
2022-08-20T10:34:42.645Z,30.58
2022-08-20T10:36:17.050Z,30.60
2022-08-20T10:37:50.136Z,30.58
2022-08-20T10:39:22.196Z,30.64
2022-08-20T10:40:54.214Z,30.67
2022-08-20T10:42:27.180Z,30.70
2022-08-20T10:44:00.174Z,30.72
2022-08-20T10:45:35.110Z,30.67
2022-08-20T10:47:24.982Z,30.80
2022-08-20T10:48:57.989Z,30.87
2022-08-20T10:50:30.261Z,30.88
2022-08-20T10:52:06.073Z,31.00
2022-08-20T10:53:39.363Z,30.97
2022-08-20T10:55:11.403Z,30.92
2022-08-20T10:56:44.572Z,30.86
2022-08-20T10:58:16.639Z,30.97
2022-08-20T10:59:49.922Z,30.97
2022-08-20T11:01:31.334Z,30.82
2022-08-20T11:03:07.494Z,31.01
2022-08-20T11:04:41.344Z,31.00
2022-08-20T11:06:13.271Z,30.98
2022-08-20T11:07:50.723Z,30.96
2022-08-20T11:09:29.367Z,31.02
2022-08-20T11:11:01.309Z,31.00
2022-08-20T11:12:34.460Z,31.06
2022-08-20T11:14:07.459Z,31.10
2022-08-20T11:15:41.763Z,31.15
2022-08-20T11:17:14.215Z,31.10
2022-08-20T11:18:47.654Z,31.11
2022-08-20T11:20:20.545Z,31.03
2022-08-20T11:21:53.477Z,31.04
2022-08-20T11:23:26.494Z,30.97
2022-08-20T11:24:59.492Z,31.00
2022-08-20T11:26:32.422Z,30.99
2022-08-20T11:28:05.596Z,31.03
2022-08-20T11:29:39.491Z,30.96
2022-08-20T11:31:14.135Z,30.92
2022-08-20T11:32:46.282Z,30.77
2022-08-20T11:34:18.628Z,30.84
2022-08-20T11:35:51.591Z,30.86
2022-08-20T11:37:25.283Z,30.91
2022-08-20T11:38:58.245Z,30.94
2022-08-20T11:40:31.775Z,30.93
2022-08-20T11:42:04.916Z,30.92
2022-08-20T11:43:37.867Z,30.85
2022-08-20T11:45:10.075Z,30.82
2022-08-20T11:46:43.189Z,30.74
2022-08-20T11:48:15.654Z,30.66
2022-08-20T11:49:56.679Z,30.66
2022-08-20T11:51:28.638Z,30.57
2022-08-20T11:53:01.804Z,30.62
2022-08-20T11:54:34.440Z,30.63
2022-08-20T11:56:07.829Z,30.66
2022-08-20T11:57:47.963Z,30.69
2022-08-20T11:59:19.986Z,30.56
2022-08-20T12:00:51.978Z,30.51
2022-08-20T12:02:25.184Z,30.53
2022-08-20T12:04:01.776Z,30.53
2022-08-20T12:05:34.726Z,30.48
2022-08-20T12:07:10.834Z,30.27
2022-08-20T12:08:43.803Z,30.23
2022-08-20T12:10:15.898Z,30.19
2022-08-20T12:11:48.822Z,30.27
2022-08-20T12:13:20.860Z,30.23
2022-08-20T12:14:57.265Z,30.29
2022-08-20T12:16:29.285Z,30.31
2022-08-20T12:18:02.390Z,30.37
2022-08-20T12:19:36.769Z,30.47
2022-08-20T12:21:09.986Z,30.55
2022-08-20T12:22:42.011Z,30.36
2022-08-20T12:24:14.970Z,30.01
2022-08-20T12:25:48.129Z,29.91
2022-08-20T12:27:21.736Z,29.86
2022-08-20T12:28:55.929Z,29.79
2022-08-20T12:30:28.025Z,29.85
2022-08-20T12:32:00.060Z,29.86
2022-08-20T12:33:32.052Z,29.85
2022-08-20T12:35:04.844Z,29.94
2022-08-20T12:36:37.779Z,29.98
2022-08-20T12:38:11.296Z,29.77
2022-08-20T12:39:44.470Z,29.63
2022-08-20T12:41:17.583Z,29.73
2022-08-20T12:42:49.776Z,29.82
2022-08-20T12:44:21.773Z,29.78
2022-08-20T12:45:54.721Z,29.74
2022-08-20T12:47:37.729Z,29.66
2022-08-20T12:49:11.234Z,29.60
2022-08-20T12:50:46.522Z,29.57
2022-08-20T12:52:20.441Z,29.51
2022-08-20T12:53:53.427Z,29.41
2022-08-20T12:55:25.454Z,29.37
2022-08-20T12:56:58.490Z,29.32
2022-08-20T12:58:30.415Z,29.22
2022-08-20T13:00:08.199Z,29.16
2022-08-20T13:01:40.549Z,28.98
2022-08-20T13:03:13.292Z,28.90
2022-08-20T13:04:45.314Z,28.64
2022-08-20T13:06:18.231Z,28.65
2022-08-20T13:07:50.869Z,28.60
2022-08-20T13:09:23.819Z,28.54
2022-08-20T13:10:56.799Z,28.41
2022-08-20T13:12:28.875Z,28.30
2022-08-20T13:14:00.814Z,28.25
2022-08-20T13:15:33.223Z,28.25
2022-08-20T13:17:06.505Z,28.28
2022-08-20T13:18:39.455Z,28.34
2022-08-20T13:20:13.314Z,28.34
2022-08-20T13:21:46.720Z,28.38
2022-08-20T13:23:27.248Z,28.40
2022-08-20T13:25:00.339Z,28.31
2022-08-20T13:26:32.318Z,28.00
2022-08-20T13:28:04.883Z,28.02
2022-08-20T13:29:37.054Z,28.12
2022-08-20T13:31:11.243Z,28.18
2022-08-20T13:32:44.748Z,28.15
2022-08-20T13:34:16.802Z,27.98
2022-08-20T13:35:48.851Z,27.94
2022-08-20T13:37:25.579Z,27.89
2022-08-20T13:38:58.759Z,27.69
2022-08-20T13:40:30.797Z,27.62
2022-08-20T13:42:03.747Z,27.55
2022-08-20T13:43:35.742Z,27.65
2022-08-20T13:45:08.163Z,27.58
2022-08-20T13:46:41.100Z,27.49
2022-08-20T13:48:15.289Z,27.46
2022-08-20T13:49:47.997Z,27.40
2022-08-20T13:51:19.989Z,27.35
2022-08-20T13:52:56.247Z,27.21
2022-08-20T13:54:30.452Z,27.16
2022-08-20T13:56:02.655Z,27.02
2022-08-20T13:57:34.925Z,27.01
2022-08-20T13:59:06.999Z,27.05
2022-08-20T14:00:45.790Z,26.93
2022-08-20T14:02:19.548Z,26.90
2022-08-20T14:03:51.493Z,26.92
2022-08-20T14:05:24.943Z,26.90
2022-08-20T14:06:57.003Z,26.81
2022-08-20T14:08:30.059Z,26.69
2022-08-20T14:10:07.109Z,26.65
2022-08-20T14:11:39.062Z,26.47
2022-08-20T14:13:15.458Z,26.18
2022-08-20T14:14:47.741Z,25.82
2022-08-20T14:16:21.201Z,25.88
2022-08-20T14:18:00.157Z,25.97
2022-08-20T14:19:51.134Z,26.01
2022-08-20T14:21:24.071Z,26.10
2022-08-20T14:22:58.123Z,26.26
2022-08-20T14:24:31.681Z,26.36
2022-08-20T14:26:04.687Z,26.47
2022-08-20T14:27:36.760Z,26.45
2022-08-20T14:29:09.735Z,26.50
2022-08-20T14:30:42.139Z,26.47
2022-08-20T14:32:14.166Z,26.38
2022-08-20T14:33:47.274Z,26.42
2022-08-20T14:35:20.472Z,26.26
2022-08-20T14:36:52.458Z,26.18
2022-08-20T14:38:24.508Z,26.08
2022-08-20T14:39:57.922Z,26.07
2022-08-20T14:41:30.027Z,25.98
2022-08-20T14:43:02.245Z,25.86
2022-08-20T14:44:35.760Z,25.88
2022-08-20T14:46:07.707Z,25.82
2022-08-20T14:47:50.687Z,25.82
2022-08-20T14:49:26.086Z,25.72
2022-08-20T14:50:59.792Z,25.74
2022-08-20T14:52:36.749Z,25.67
2022-08-20T14:54:08.754Z,25.61
2022-08-20T14:55:40.791Z,25.64
2022-08-20T14:57:13.496Z,25.56
2022-08-20T14:58:45.503Z,25.51
2022-08-20T15:00:19.761Z,25.47
2022-08-20T15:01:51.741Z,25.52
2022-08-20T15:03:30.784Z,25.54
2022-08-20T15:05:04.464Z,25.57
2022-08-20T15:06:40.160Z,25.46
